Time;durP1;ratioP1;P1;durP2;ratioP2;P2;SDS_P1;SDS_P2;PMS_P1;PMS_P2;Temp;Humidity;BMP_temperature;BMP_pressure;BME280_temperature;BME280_humidity;BME280_pressure;Samples;Min_cycle;Max_cycle;Signal;HPM_P1;HPM_P2
2021/04/27 00:00:00;;;;;;;9.23;4.90;;;6.10;84.20;;;7.16;52.02;100332.81;4763122;30;20118;-83
2021/04/27 00:02:26;;;;;;;9.73;4.63;;;6.10;85.50;;;7.10;51.92;100332.19;4771713;30;20105;-80
2021/04/27 00:04:52;;;;;;;8.70;4.82;;;5.90;86.30;;;7.07;51.78;100329.28;4770808;30;20090;-80
2021/04/27 00:07:18;;;;;;;12.52;5.38;;;5.90;86.90;;;7.06;52.22;100322.94;4770108;30;20031;-81
2021/04/27 00:09:46;;;;;;;7.22;4.43;;;5.90;88.30;;;7.02;52.49;100332.28;4769723;30;20027;-82
2021/04/27 00:12:12;;;;;;;7.25;4.38;;;5.90;89.50;;;6.87;53.14;100323.44;4770063;30;20127;-83
2021/04/27 00:14:38;;;;;;;11.68;4.90;;;5.70;91.00;;;6.80;53.89;100330.72;4770066;30;20080;-81
2021/04/27 00:17:05;;;;;;;10.70;4.82;;;5.60;92.20;;;6.66;54.21;100324.63;4771116;30;20066;-81
2021/04/27 00:19:32;;;;;;;10.00;5.28;;;5.50;93.90;;;6.68;53.85;100316.75;4770974;29;20050;-83
2021/04/27 00:21:59;;;;;;;9.02;5.43;;;5.60;94.00;;;6.70;53.90;100318.06;4790180;29;20343;-79
2021/04/27 00:24:27;;;;;;;9.88;5.28;;;5.60;95.10;;;6.71;53.51;100321.66;4780808;30;20128;-81
2021/04/27 00:26:53;;;;;;;9.20;5.25;;;5.50;95.60;;;6.66;53.81;100311.56;4807156;30;20040;-78
2021/04/27 00:29:19;;;;;;;7.30;4.93;;;5.50;96.20;;;6.61;53.93;100308.19;4808532;29;20035;-80
2021/04/27 00:31:44;;;;;;;15.55;5.53;;;5.50;97.10;;;6.51;54.59;100314.97;4790895;29;20296;-82
2021/04/27 00:34:10;;;;;;;9.35;4.97;;;5.40;98.10;;;6.45;54.74;100308.00;4777340;30;20035;-83
2021/04/27 00:36:36;;;;;;;9.73;5.72;;;5.30;98.90;;;6.41;55.11;100312.59;4791163;30;20039;-81
2021/04/27 00:39:04;;;;;;;10.52;5.57;;;5.30;99.90;;;6.47;55.26;100318.75;4774368;30;20039;-80
2021/04/27 00:41:29;;;;;;;10.68;5.72;;;5.30;99.90;;;6.43;55.14;100315.00;4774163;30;20047;-82
2021/04/27 00:43:55;;;;;;;10.45;5.55;;;5.30;99.90;;;6.34;55.17;100307.59;4790609;29;20465;-81
2021/04/27 00:46:21;;;;;;;11.88;6.55;;;5.20;99.90;;;6.33;55.80;100313.47;4774221;30;20381;-80
2021/04/27 00:48:47;;;;;;;10.73;5.43;;;5.20;99.90;;;6.27;55.56;100312.03;4774006;30;20036;-83
2021/04/27 00:51:13;;;;;;;11.48;5.63;;;5.10;99.90;;;6.14;55.93;100308.38;4790339;30;20453;-83
2021/04/27 00:53:40;;;;;;;8.02;5.60;;;5.10;99.90;;;6.05;56.42;100304.03;4790647;29;20035;-83
2021/04/27 00:56:05;;;;;;;8.90;5.60;;;4.90;99.90;;;5.98;56.66;100303.75;4779272;30;20036;-78
2021/04/27 00:58:33;;;;;;;10.77;5.30;;;4.90;99.90;;;5.98;56.90;100303.75;4786636;30;20101;-80
2021/04/27 01:00:59;;;;;;;9.15;5.50;;;4.90;99.90;;;6.03;56.47;100306.34;4776082;30;20039;-81
2021/04/27 01:03:26;;;;;;;8.27;5.15;;;4.90;99.90;;;6.03;57.40;100309.13;4773079;30;20039;-84
2021/04/27 01:05:55;;;;;;;9.93;6.03;;;4.90;99.90;;;6.02;57.48;100305.53;4773627;30;20038;-83
2021/04/27 01:08:52;;;;;;;16.50;6.75;;;4.80;99.90;;;5.97;57.40;100308.50;4773353;30;20031;-81
2021/04/27 01:11:50;;;;;;;8.77;5.03;;;4.90;99.90;;;5.98;56.95;100292.66;4773070;30;20042;-80
2021/04/27 01:14:40;;;;;;;6.85;4.68;;;4.90;99.90;;;6.01;56.72;100300.31;4773401;30;20039;-80
2021/04/27 01:17:12;;;;;;;12.05;5.13;;;4.90;99.90;;;6.01;56.74;100298.34;4773827;30;20027;-82
2021/04/27 01:20:07;;;;;;;12.80;5.78;;;4.80;99.90;;;5.94;57.28;100300.84;4773374;30;20058;-80
2021/04/27 01:23:11;;;;;;;8.77;4.72;;;4.80;99.90;;;5.89;56.89;100289.97;4773452;30;20039;-81
2021/04/27 01:26:12;;;;;;;6.63;4.82;;;4.80;99.90;;;5.85;56.65;100294.50;4817052;24;20042;-84
2021/04/27 01:28:40;;;;;;;9.35;4.85;;;4.80;99.90;;;5.91;56.45;100287.66;4829080;29;20390;-86
2021/04/27 01:31:08;;;;;;;8.68;4.47;;;4.80;99.90;;;5.89;56.80;100286.38;4815605;29;20030;-84
2021/04/27 01:33:35;;;;;;;9.13;4.63;;;4.70;99.90;;;5.78;56.98;100283.13;4814065;29;20061;-85
2021/04/27 01:36:04;;;;;;;11.82;4.85;;;4.70;99.90;;;5.71;57.30;100278.16;4812483;29;20046;-84
2021/04/27 01:38:31;;;;;;;9.00;4.75;;;4.60;99.90;;;5.62;57.67;100277.34;4815314;29;20050;-83
2021/04/27 01:40:59;;;;;;;10.80;4.85;;;4.50;99.90;;;5.53;57.58;100275.78;4798216;29;20045;-85
2021/04/27 01:43:26;;;;;;;8.32;4.40;;;4.40;99.90;;;5.33;58.62;100269.03;4794419;29;20042;-86
2021/04/27 01:46:00;;;;;;;10.77;5.35;;;4.30;99.90;;;5.12;59.76;100271.72;4792678;29;20039;-86
2021/04/27 01:48:27;;;;;;;7.55;5.13;;;4.10;99.90;;;4.90;61.28;100260.06;4795324;29;20035;-85
2021/04/27 01:50:55;;;;;;;7.45;5.10;;;3.90;99.90;;;4.85;62.17;100263.81;4797860;29;20030;-82
2021/04/27 01:53:22;;;;;;;8.98;5.22;;;3.70;99.90;;;4.70;63.18;100262.41;4804485;29;20023;-78
2021/04/27 01:55:49;;;;;;;9.90;5.53;;;3.60;99.90;;;4.47;63.50;100258.19;4797128;29;20047;-85
2021/04/27 01:58:16;;;;;;;10.00;5.72;;;3.40;99.90;;;4.25;64.82;100258.38;4794519;29;20031;-82
2021/04/27 02:00:43;;;;;;;8.52;5.32;;;3.20;99.90;;;4.08;66.29;100253.66;4793227;29;20035;-86
2021/04/27 02:03:09;;;;;;;11.43;6.20;;;3.10;99.90;;;4.01;66.62;100258.06;4810130;29;20122;-87
2021/04/27 02:05:36;;;;;;;12.73;5.65;;;3.00;99.90;;;4.12;66.31;100256.56;4814440;29;20042;-84
2021/04/27 02:08:03;;;;;;;7.30;4.90;;;3.00;99.90;;;4.19;65.83;100257.72;4813189;29;20437;-84
2021/04/27 02:10:29;;;;;;;8.45;4.80;;;3.10;99.90;;;4.36;64.18;100259.69;4826531;29;20034;-84
2021/04/27 02:13:11;;;;;;;8.75;4.70;;;3.20;99.90;;;4.54;62.91;100257.69;4826260;29;20041;-86
2021/04/27 02:15:37;;;;;;;9.57;4.97;;;3.40;99.90;;;4.84;60.63;100251.13;4826696;29;20519;-86
2021/04/27 02:18:33;;;;;;;9.05;4.28;;;3.70;99.90;;;5.06;60.32;100253.69;4825429;29;20152;-86
2021/04/27 02:21:03;;;;;;;11.05;4.65;;;3.90;99.90;;;5.19;59.44;100241.56;4830421;29;20067;-86
2021/04/27 02:23:33;;;;;;;8.55;4.55;;;4.00;99.90;;;5.21;59.05;100247.59;4832639;29;20046;-87
2021/04/27 02:26:00;;;;;;;9.30;4.10;;;4.10;99.90;;;5.20;59.24;100254.25;4832388;29;20063;-84
2021/04/27 02:28:27;;;;;;;8.43;3.63;;;4.10;99.90;;;5.20;59.61;100251.50;4831330;29;20066;-87
2021/04/27 02:30:54;;;;;;;13.70;4.38;;;4.10;99.90;;;5.16;59.19;100246.97;4831789;29;20429;-85
2021/04/27 02:33:22;;;;;;;9.48;4.47;;;4.20;99.90;;;5.30;58.85;100251.13;4831910;29;20030;-84
2021/04/27 02:35:51;;;;;;;10.30;4.20;;;4.20;99.90;;;5.27;59.19;100251.78;4832297;29;20117;-87
2021/04/27 02:38:21;;;;;;;8.48;4.57;;;4.30;99.90;;;5.30;58.88;100240.03;4833846;29;20125;-87
2021/04/27 02:40:55;;;;;;;8.18;4.47;;;4.20;99.90;;;5.28;58.67;100249.84;4837656;29;20164;-81
2021/04/27 02:43:24;;;;;;;10.80;4.13;;;4.20;99.90;;;5.23;59.33;100245.28;4837881;29;20050;-85
2021/04/27 02:45:51;;;;;;;7.82;4.45;;;4.20;99.90;;;5.21;58.87;100239.28;4817067;29;20045;-84
2021/04/27 02:48:23;;;;;;;5.82;3.78;;;4.20;99.90;;;5.21;59.32;100244.81;4837011;29;20472;-85
2021/04/27 02:51:00;;;;;;;7.20;3.83;;;4.20;99.90;;;5.20;59.33;100250.69;4839196;29;20075;-83
2021/04/27 02:53:27;;;;;;;8.40;4.45;;;4.20;99.90;;;5.14;59.10;100244.50;4837576;29;20044;-84
2021/04/27 02:55:55;;;;;;;6.55;4.10;;;4.20;99.90;;;5.11;59.35;100244.34;4835220;29;20038;-83
2021/04/27 02:58:22;;;;;;;8.93;4.82;;;4.10;99.90;;;5.05;60.02;100240.97;4817419;29;20141;-83
2021/04/27 03:00:51;;;;;;;7.80;3.78;;;4.10;99.90;;;5.02;59.31;100236.09;4817275;29;20069;-86
2021/04/27 03:03:17;;;;;;;9.50;4.57;;;4.00;99.90;;;5.05;58.94;100232.66;4831680;29;20067;-82
2021/04/27 03:05:43;;;;;;;8.20;4.15;;;4.10;99.90;;;5.14;58.77;100240.94;4836501;29;20046;-85
2021/04/27 03:08:09;;;;;;;9.77;4.07;;;4.10;99.90;;;5.11;58.73;100230.53;4832102;29;20038;-86
2021/04/27 03:10:35;;;;;;;10.18;4.20;;;4.10;99.90;;;5.11;58.78;100227.75;4796221;29;20058;-86
2021/04/27 03:13:02;;;;;;;7.70;4.10;;;4.00;99.90;;;5.04;58.85;100236.56;4811214;29;20035;-86
2021/04/27 03:15:28;;;;;;;9.27;4.45;;;4.00;99.90;;;5.00;58.49;100232.03;4811251;29;20035;-82
2021/04/27 03:17:54;;;;;;;6.45;3.80;;;4.00;99.90;;;4.98;58.98;100231.53;4810606;29;20106;-84
2021/04/27 03:20:20;;;;;;;8.68;4.20;;;4.00;99.90;;;5.03;59.14;100228.63;4814411;29;20062;-84
2021/04/27 03:22:47;;;;;;;6.95;3.97;;;4.00;99.90;;;5.01;59.15;100231.69;4798697;29;20038;-85
2021/04/27 03:25:14;;;;;;;5.50;3.60;;;4.00;99.90;;;5.00;58.47;100229.28;4812788;29;20103;-85
2021/04/27 03:27:41;;;;;;;7.88;3.75;;;4.00;99.90;;;5.00;58.95;100235.63;4814605;29;20039;-87
2021/04/27 03:30:12;;;;;;;4.75;3.55;;;4.00;99.90;;;4.97;58.73;100227.16;4809866;29;20114;-84
2021/04/27 03:32:38;;;;;;;8.73;3.78;;;4.00;99.90;;;4.96;58.86;100228.31;4810293;29;20039;-86
2021/04/27 03:35:12;;;;;;;8.15;4.10;;;3.90;99.90;;;4.98;59.03;100223.25;4809945;29;20038;-83
2021/04/27 03:37:40;;;;;;;6.25;3.92;;;3.90;99.90;;;4.94;58.57;100225.06;4811989;29;20035;-83
2021/04/27 03:40:11;;;;;;;10.98;4.38;;;3.90;99.90;;;4.91;58.95;100226.56;4812281;29;20106;-82
2021/04/27 03:42:38;;;;;;;7.95;4.35;;;3.80;99.90;;;4.86;58.99;100221.19;4813509;29;20088;-83
2021/04/27 03:45:09;;;;;;;7.47;3.60;;;3.80;99.90;;;4.87;58.86;100220.03;4796787;29;20106;-87
2021/04/27 03:47:35;;;;;;;8.68;4.30;;;3.70;99.90;;;4.83;58.90;100221.03;4813748;29;20039;-87
2021/04/27 03:50:07;;;;;;;8.25;4.18;;;3.70;99.90;;;4.83;59.07;100221.84;4810234;29;20038;-86
2021/04/27 03:52:33;;;;;;;6.70;4.15;;;3.80;99.90;;;4.81;58.99;100224.13;4810915;29;20043;-84
2021/04/27 03:54:59;;;;;;;9.07;4.28;;;3.80;99.90;;;4.83;59.34;100229.31;4812691;29;20038;-86
2021/04/27 03:57:25;;;;;;;7.85;4.18;;;3.70;99.90;;;4.73;59.47;100230.50;4815198;29;20077;-85
2021/04/27 03:59:52;;;;;;;9.80;4.78;;;3.70;99.90;;;4.74;59.23;100223.81;4818147;29;20043;-84
2021/04/27 04:02:18;;;;;;;4.80;3.90;;;3.70;99.90;;;4.64;59.58;100230.50;4816112;29;20043;-86
2021/04/27 04:04:43;;;;;;;10.18;4.28;;;3.60;99.90;;;4.60;59.66;100231.50;4816130;29;20038;-82
2021/04/27 04:07:09;;;;;;;4.13;3.17;;;3.60;99.90;;;4.56;60.22;100230.53;4814692;29;20050;-83
2021/04/27 04:09:35;;;;;;;5.28;3.67;;;3.50;99.90;;;4.49;59.93;100221.94;4834783;29;20085;-82
2021/04/27 04:12:01;;;;;;;9.13;4.22;;;3.50;99.90;;;4.55;60.00;100224.19;4842121;29;20034;-84
2021/04/27 04:14:28;;;;;;;6.32;3.75;;;3.60;99.90;;;4.57;60.15;100226.63;4835824;29;20046;-82
2021/04/27 04:16:53;;;;;;;6.35;3.30;;;3.50;99.90;;;4.48;60.21;100232.16;4834193;29;20091;-80
2021/04/27 04:19:19;;;;;;;8.25;4.60;;;3.50;99.90;;;4.53;59.77;100218.16;4819438;29;20030;-82
2021/04/27 04:21:45;;;;;;;6.13;4.03;;;3.50;99.90;;;4.53;59.90;100223.69;4832573;29;20030;-83
2021/04/27 04:24:12;;;;;;;10.93;3.97;;;3.50;99.90;;;4.55;59.94;100215.91;4819362;29;20063;-82
2021/04/27 04:26:38;;;;;;;6.38;3.95;;;3.50;99.90;;;4.47;60.19;100226.97;4834863;29;20046;-82
2021/04/27 04:29:05;;;;;;;8.20;3.85;;;3.50;99.90;;;4.46;60.18;100220.63;4814902;29;20128;-84
2021/04/27 04:31:32;;;;;;;6.47;4.13;;;3.50;99.90;;;4.44;59.96;100230.38;4816603;29;20288;-83
2021/04/27 04:33:59;;;;;;;5.45;3.40;;;3.50;99.90;;;4.50;60.18;100226.31;4829844;29;20039;-81
2021/04/27 04:36:25;;;;;;;9.02;3.60;;;3.50;99.90;;;4.43;59.75;100228.78;4832788;29;20069;-82
2021/04/27 04:38:51;;;;;;;7.80;4.10;;;3.40;99.90;;;4.51;59.95;100227.94;4834159;29;20022;-82
2021/04/27 04:41:17;;;;;;;4.28;3.42;;;3.50;99.90;;;4.45;60.08;100232.81;4831055;29;20047;-80
2021/04/27 04:43:43;;;;;;;10.02;3.90;;;3.50;99.90;;;4.58;59.57;100228.25;4831053;29;20034;-82
2021/04/27 04:46:09;;;;;;;9.07;3.75;;;3.50;99.90;;;4.61;59.46;100235.88;4815870;29;20058;-84
2021/04/27 04:48:35;;;;;;;6.97;3.45;;;3.50;99.90;;;4.60;59.39;100232.31;4818203;29;20445;-83
2021/04/27 04:51:04;;;;;;;6.38;3.50;;;3.60;99.90;;;4.63;59.48;100230.84;4832495;29;20087;-82
2021/04/27 04:53:30;;;;;;;5.55;4.22;;;3.60;99.90;;;4.64;59.04;100235.22;4832110;29;20045;-83
2021/04/27 04:55:56;;;;;;;4.80;3.10;;;3.60;99.90;;;4.63;58.64;100242.72;4831082;29;20032;-83
2021/04/27 04:58:22;;;;;;;5.97;3.85;;;3.70;99.90;;;4.72;58.91;100237.16;4834030;29;20079;-83
2021/04/27 05:00:50;;;;;;;11.65;3.70;;;3.60;99.90;;;4.67;59.16;100234.56;4834695;29;20112;-82
2021/04/27 05:03:16;;;;;;;5.95;3.58;;;3.60;99.90;;;4.71;58.82;100241.91;4833727;29;20046;-82
2021/04/27 05:05:42;;;;;;;5.90;3.90;;;3.60;99.90;;;4.73;58.39;100241.56;4834743;29;20102;-81
2021/04/27 05:08:12;;;;;;;6.20;3.88;;;3.70;99.90;;;4.81;58.61;100248.22;4831650;29;20034;-82
2021/04/27 05:10:39;;;;;;;9.23;4.47;;;3.70;99.90;;;4.84;58.36;100251.13;4814426;29;20038;-82
2021/04/27 05:13:06;;;;;;;6.20;3.70;;;3.80;99.90;;;5.05;57.57;100254.00;4797663;29;20091;-83
2021/04/27 05:15:32;;;;;;;6.53;3.22;;;3.90;99.90;;;5.07;57.08;100252.50;4814670;29;20045;-85
2021/04/27 05:17:59;;;;;;;9.30;3.88;;;4.00;99.90;;;5.23;56.58;100250.03;4815697;29;20031;-85
2021/04/27 05:20:25;;;;;;;6.10;3.35;;;4.10;99.90;;;5.36;56.29;100248.19;4798548;29;20523;-82
2021/04/27 05:22:52;;;;;;;7.35;3.60;;;4.20;99.90;;;5.54;55.78;100252.47;4815516;29;20102;-82
2021/04/27 05:25:19;;;;;;;4.53;3.28;;;4.30;99.90;;;5.64;55.22;100244.59;4799831;29;20042;-83
2021/04/27 05:27:45;;;;;;;5.53;2.97;;;4.50;99.90;;;5.69;54.75;100249.13;4800026;29;20467;-83
2021/04/27 05:30:13;;;;;;;6.18;2.83;;;4.60;99.90;;;5.92;54.54;100244.13;4801311;29;20031;-84
2021/04/27 05:32:39;;;;;;;8.40;3.40;;;4.70;99.90;;;6.16;53.86;100249.81;4801977;29;20035;-85
2021/04/27 05:35:08;;;;;;;4.53;3.13;;;4.80;99.90;;;6.27;54.19;100264.88;4803987;29;20039;-84
2021/04/27 05:37:34;;;;;;;8.30;3.10;;;5.00;99.90;;;6.39;52.66;100253.06;4819741;29;20043;-85
2021/04/27 05:40:02;;;;;;;5.63;3.10;;;5.10;99.90;;;6.59;51.83;100246.66;4801028;29;20039;-84
2021/04/27 05:42:28;;;;;;;8.25;3.38;;;5.30;99.90;;;6.83;50.83;100253.13;4799884;29;20038;-84
2021/04/27 05:44:54;;;;;;;5.85;3.10;;;5.40;99.90;;;7.06;50.75;100255.47;4815172;29;20063;-84
2021/04/27 05:47:20;;;;;;;7.50;2.72;;;5.60;99.90;;;7.22;49.76;100256.44;4813049;29;20038;-82
2021/04/27 05:49:46;;;;;;;8.73;3.13;;;5.80;99.90;;;7.21;49.83;100252.03;4813161;29;20031;-82
2021/04/27 05:52:12;;;;;;;5.72;2.30;;;5.90;98.40;;;7.35;49.23;100241.41;4814589;29;20079;-86
2021/04/27 05:54:39;;;;;;;8.50;2.92;;;6.00;97.20;;;7.23;48.91;100246.94;4811792;29;20049;-85
2021/04/27 05:57:06;;;;;;;5.55;2.92;;;6.10;95.10;;;7.64;48.63;100249.47;4815731;29;20090;-84
2021/04/27 05:59:33;;;;;;;4.38;2.78;;;6.30;95.30;;;7.76;47.64;100249.50;4815035;29;20122;-85
2021/04/27 06:01:59;;;;;;;6.43;2.63;;;6.40;93.40;;;8.03;47.03;100261.06;4798937;29;20042;-85
2021/04/27 06:04:26;;;;;;;7.25;3.25;;;6.60;92.20;;;8.07;46.96;100250.81;4800737;29;20424;-84
2021/04/27 06:06:52;;;;;;;7.47;2.83;;;6.80;91.30;;;7.92;47.23;100257.94;4814464;29;20039;-83
2021/04/27 06:09:18;;;;;;;6.75;2.83;;;6.80;90.50;;;8.38;46.56;100262.94;4814771;29;20068;-83
2021/04/27 06:11:45;;;;;;;10.27;3.25;;;7.00;90.20;;;8.67;45.64;100258.22;4799332;29;20130;-84
2021/04/27 06:14:11;;;;;;;6.55;2.65;;;7.20;88.00;;;8.79;45.46;100250.63;4811478;29;20035;-85
2021/04/27 06:16:38;;;;;;;6.82;2.67;;;7.40;87.00;;;8.76;45.27;100251.34;4798597;29;20039;-83
2021/04/27 06:19:05;;;;;;;12.82;3.05;;;7.50;84.60;;;8.45;45.78;100254.81;4797218;29;20058;-84
2021/04/27 06:21:32;;;;;;;4.75;2.42;;;7.50;83.60;;;8.45;45.48;100251.22;4796488;29;20038;-82
2021/04/27 06:24:00;;;;;;;11.00;2.90;;;7.50;82.10;;;8.60;45.43;100255.22;4812045;29;20039;-84
2021/04/27 06:26:26;;;;;;;8.65;2.70;;;7.50;83.30;;;8.45;46.22;100248.44;4810948;29;20377;-83
2021/04/27 06:28:54;;;;;;;7.97;2.75;;;7.50;82.70;;;8.59;45.31;100243.28;4812099;29;20478;-83
2021/04/27 06:31:21;;;;;;;4.72;2.40;;;7.60;81.10;;;8.66;45.11;100246.28;4819711;29;20027;-83
2021/04/27 06:33:47;;;;;;;6.85;3.00;;;7.70;80.60;;;8.95;45.00;100242.28;4802442;29;20050;-83
2021/04/27 06:36:15;;;;;;;5.15;2.80;;;7.90;79.90;;;9.14;44.75;100238.81;4813248;29;20080;-83
2021/04/27 06:38:42;;;;;;;7.45;2.65;;;8.10;79.60;;;9.66;44.08;100239.34;4798577;29;20037;-83
2021/04/27 06:41:10;;;;;;;5.90;2.33;;;8.40;79.20;;;9.78;43.65;100230.84;4818488;29;20440;-83
2021/04/27 06:43:39;;;;;;;7.28;2.95;;;8.60;77.30;;;9.82;42.91;100231.75;4799627;29;20122;-82
2021/04/27 06:46:06;;;;;;;7.28;3.00;;;8.70;75.20;;;9.94;42.76;100239.19;4799444;29;20487;-83
2021/04/27 06:48:34;;;;;;;5.50;2.30;;;8.80;74.80;;;10.10;42.01;100236.34;4814666;29;20034;-82
2021/04/27 06:51:03;;;;;;;7.68;2.60;;;8.90;73.30;;;10.24;42.00;100231.91;4811797;29;20096;-83
2021/04/27 06:53:31;;;;;;;5.75;2.55;;;9.10;72.60;;;10.70;41.31;100235.66;4813474;29;20038;-83
2021/04/27 06:55:57;;;;;;;6.07;3.08;;;9.30;71.70;;;10.95;40.63;100234.16;4814322;29;20033;-84
2021/04/27 06:58:24;;;;;;;9.80;2.63;;;9.60;70.30;;;11.14;39.81;100238.09;4814666;29;20098;-83
2021/04/27 07:00:50;;;;;;;6.95;2.88;;;9.90;68.60;;;11.62;38.92;100245.72;4797792;29;20102;-84
2021/04/27 07:03:16;;;;;;;5.47;2.90;;;10.30;67.60;;;11.67;38.75;100239.81;4812529;29;20118;-84
2021/04/27 07:05:43;;;;;;;6.82;2.47;;;10.30;65.70;;;11.32;39.23;100230.81;4795423;29;20039;-83
2021/04/27 07:08:10;;;;;;;9.57;2.67;;;10.30;65.40;;;11.77;39.17;100230.00;4810810;29;20068;-82
2021/04/27 07:10:37;;;;;;;7.45;2.40;;;10.50;65.50;;;12.52;38.15;100230.63;4826621;29;20034;-84
2021/04/27 07:13:03;;;;;;;7.50;2.30;;;10.80;65.00;;;13.02;36.88;100229.22;4829638;29;20033;-83
2021/04/27 07:15:30;;;;;;;6.82;2.30;;;11.20;63.00;;;13.18;35.77;100223.41;4828104;29;20034;-83
2021/04/27 07:17:56;;;;;;;3.83;2.10;;;11.60;61.30;;;13.35;35.33;100211.56;4813362;29;20109;-83
2021/04/27 07:20:22;;;;;;;4.97;2.28;;;11.80;60.20;;;13.81;35.06;100220.31;4827414;29;20034;-83
2021/04/27 07:22:48;;;;;;;6.80;2.40;;;12.00;59.90;;;14.06;35.21;100215.66;4827249;29;20041;-84
2021/04/27 07:25:16;;;;;;;5.43;2.42;;;12.30;59.00;;;13.84;34.47;100213.16;4847630;24;20054;-83
2021/04/27 07:27:44;;;;;;;4.65;2.35;;;12.40;57.60;;;13.91;34.34;100216.78;4823285;29;20035;-81
2021/04/27 07:30:14;;;;;;;6.90;2.95;;;12.50;56.90;;;13.66;34.52;100213.81;4841697;29;20043;-85
2021/04/27 07:32:40;;;;;;;4.88;2.65;;;12.50;56.50;;;13.79;33.91;100211.50;4827227;29;20043;-84
2021/04/27 07:35:09;;;;;;;9.38;2.83;;;12.60;55.60;;;14.14;33.11;100206.09;4837796;29;20047;-86
2021/04/27 07:37:35;;;;;;;5.93;2.15;;;12.70;55.20;;;13.62;33.74;100212.16;4797196;30;20031;-85
2021/04/27 07:40:05;;;;;;;5.85;2.47;;;12.50;54.40;;;13.83;34.54;100214.34;4796434;30;20065;-83
2021/04/27 07:42:33;;;;;;;8.23;2.58;;;12.50;56.10;;;14.33;31.91;100207.84;4794738;30;20032;-83
2021/04/27 07:45:00;;;;;;;7.07;1.95;;;12.90;54.00;;;14.81;31.91;100213.22;4808197;29;20031;-82
2021/04/27 07:47:27;;;;;;;4.18;1.88;;;13.20;53.00;;;13.82;30.24;100202.28;4793280;30;20042;-85
2021/04/27 07:49:53;;;;;;;6.50;2.30;;;13.10;48.50;;;14.62;29.51;100198.31;4794280;30;20100;-84
2021/04/27 07:52:19;;;;;;;2.25;1.60;;;13.40;49.00;;;14.11;29.02;100192.84;4794813;30;20031;-83
2021/04/27 07:54:45;;;;;;;3.67;2.05;;;13.30;47.60;;;14.63;29.78;100197.13;4794618;29;20027;-83
2021/04/27 07:57:13;;;;;;;3.75;1.40;;;13.50;49.10;;;15.19;28.97;100199.25;4796797;30;20095;-85
2021/04/27 07:59:39;;;;;;;2.83;1.70;;;13.90;47.70;;;15.30;27.81;100194.44;4795850;30;20039;-84
2021/04/27 08:02:05;;;;;;;3.67;1.75;;;14.00;46.70;;;15.00;27.68;100196.81;4793893;30;20047;-83
2021/04/27 08:04:31;;;;;;;5.38;1.85;;;13.90;45.60;;;14.91;28.89;100190.78;4809109;29;20495;-84
2021/04/27 08:06:57;;;;;;;3.85;1.80;;;13.90;47.10;;;15.03;29.13;100189.56;4794395;29;20039;-85
2021/04/27 08:09:23;;;;;;;6.00;2.33;;;14.00;46.50;;;15.11;28.40;100192.03;4796719;30;20031;-84
2021/04/27 08:11:49;;;;;;;2.40;1.85;;;14.10;46.40;;;15.43;27.63;100189.22;4799331;30;20031;-82
2021/04/27 08:14:17;;;;;;;6.28;2.00;;;14.20;45.80;;;15.74;26.73;100188.44;4792445;30;20059;-85
2021/04/27 08:16:43;;;;;;;6.10;1.88;;;14.50;44.60;;;16.42;26.21;100189.06;4792966;29;20450;-82
2021/04/27 08:19:09;;;;;;;2.95;1.40;;;14.80;44.30;;;16.44;25.89;100189.44;4792454;30;20036;-84
2021/04/27 08:21:37;;;;;;;3.65;1.80;;;15.00;43.80;;;17.01;25.92;100189.19;4792681;30;20126;-84
2021/04/27 08:24:06;;;;;;;3.13;1.83;;;15.30;43.60;;;16.70;25.03;100186.13;4806989;29;20043;-84
2021/04/27 08:26:32;;;;;;;5.47;1.73;;;15.30;41.80;;;16.40;25.84;100185.84;4792845;29;20059;-85
2021/04/27 08:28:59;;;;;;;3.47;1.73;;;15.30;42.60;;;16.71;25.04;100186.94;4808848;29;20043;-84
2021/04/27 08:31:25;;;;;;;2.55;1.73;;;15.40;42.20;;;16.28;24.90;100175.81;4798821;30;20099;-84
2021/04/27 08:33:51;;;;;;;2.70;1.52;;;15.20;41.50;;;17.18;25.42;100174.94;4803604;30;20028;-86
2021/04/27 08:36:19;;;;;;;5.25;2.03;;;15.50;42.70;;;17.38;25.64;100176.00;4793542;29;20050;-84
2021/04/27 08:38:46;;;;;;;2.53;1.50;;;15.90;43.10;;;17.50;24.39;100173.91;4792379;30;20031;-85
2021/04/27 08:41:12;;;;;;;2.67;1.83;;;15.90;41.10;;;17.43;24.53;100168.31;4792986;29;20043;-85
2021/04/27 08:43:39;;;;;;;5.63;1.88;;;16.00;41.10;;;16.88;24.85;100173.97;4791878;30;20032;-83
2021/04/27 08:46:05;;;;;;;5.78;1.77;;;15.80;40.70;;;17.30;24.22;100173.66;4792092;29;20065;-85
2021/04/27 08:48:31;;;;;;;5.43;2.22;;;15.80;40.70;;;16.79;24.44;100166.75;4792149;30;20039;-85
2021/04/27 08:50:57;;;;;;;4.18;2.00;;;15.70;40.00;;;17.06;26.09;100163.34;4791248;30;20088;-83
2021/04/27 08:53:26;;;;;;;4.20;1.80;;;15.70;42.70;;;17.77;25.90;100158.75;4791428;30;20095;-83
2021/04/27 08:55:52;;;;;;;4.32;2.15;;;15.90;43.40;;;17.91;25.38;100155.00;4792664;29;20031;-85
2021/04/27 08:58:18;;;;;;;5.80;1.50;;;16.10;42.70;;;17.59;24.09;100157.31;4792145;30;20041;-84
2021/04/27 09:00:46;;;;;;;3.33;1.42;;;16.30;40.50;;;18.02;23.94;100155.66;4793710;30;20039;-84
2021/04/27 09:03:13;;;;;;;4.22;1.77;;;16.40;40.50;;;17.73;25.23;100149.50;4793748;30;20035;-83
2021/04/27 09:05:43;;;;;;;7.00;2.10;;;16.30;42.10;;;17.52;25.73;100149.69;4795001;29;20070;-84
2021/04/27 09:08:09;;;;;;;4.20;1.63;;;16.20;42.80;;;18.02;25.80;100141.53;4795298;29;20043;-84
2021/04/27 09:10:45;;;;;;;3.83;1.90;;;16.20;43.20;;;18.62;24.34;100137.19;4794735;30;20114;-83
2021/04/27 09:13:18;;;;;;;4.93;2.03;;;16.60;41.60;;;18.38;24.77;100137.06;4794194;30;20028;-83
2021/04/27 09:15:51;;;;;;;3.00;2.00;;;16.50;41.80;;;18.23;25.20;100144.13;4795673;29;20034;-84
2021/04/27 09:18:39;;;;;;;5.43;2.47;;;16.50;42.10;;;17.93;26.90;100146.88;4801670;30;20039;-80
2021/04/27 09:21:10;;;;;;;5.63;1.92;;;16.40;43.70;;;18.75;25.11;100138.22;4798776;30;20038;-83
2021/04/27 09:23:44;;;;;;;5.30;1.85;;;16.80;42.90;;;18.27;24.60;100138.41;4794884;30;20043;-85
2021/04/27 09:26:19;;;;;;;4.13;2.00;;;16.70;41.20;;;18.17;25.63;100137.31;4795999;29;20039;-82
2021/04/27 09:28:54;;;;;;;3.22;1.77;;;16.70;42.20;;;18.81;23.82;100133.69;4796858;30;20504;-84
2021/04/27 09:31:36;;;;;;;4.88;1.90;;;16.90;41.30;;;19.07;24.66;100132.09;4797687;29;20054;-86
2021/04/27 09:34:36;;;;;;;5.63;1.88;;;17.00;42.20;;;19.60;24.78;100126.34;4798441;30;20031;-84
2021/04/27 09:37:12;;;;;;;5.40;2.17;;;17.40;42.70;;;19.51;23.98;100126.09;4814810;29;20031;-85
2021/04/27 09:39:50;;;;;;;6.38;2.55;;;17.50;40.80;;;18.57;24.42;100120.69;4799554;30;20108;-84
2021/04/27 09:42:24;;;;;;;4.60;1.90;;;17.20;40.00;;;18.68;23.78;100110.84;4800271;30;20050;-84
2021/04/27 09:44:55;;;;;;;4.40;2.20;;;17.00;39.60;;;18.49;24.21;100111.47;4801583;29;20035;-86
2021/04/27 09:47:29;;;;;;;3.80;2.40;;;16.80;40.70;;;18.22;23.93;100108.59;4801464;30;20046;-85
2021/04/27 09:50:07;;;;;;;5.32;1.95;;;16.70;40.20;;;18.84;24.38;100110.19;4802869;29;20027;-85
2021/04/27 09:52:47;;;;;;;5.97;2.13;;;16.90;40.70;;;18.93;24.04;100113.28;4801700;29;20047;-84
2021/04/27 09:55:21;;;;;;;3.13;1.67;;;17.00;40.30;;;18.21;23.79;100101.31;4799036;29;20106;-83
2021/04/27 09:57:54;;;;;;;5.38;2.00;;;16.70;39.70;;;18.48;24.27;100109.06;4813406;29;20036;-83
2021/04/27 10:00:35;;;;;;;6.20;1.88;;;16.70;40.80;;;18.88;24.70;100096.78;4812334;29;20041;-83
2021/04/27 10:03:07;;;;;;;6.28;2.30;;;16.80;41.50;;;19.04;23.89;100096.94;4798300;30;20035;-85
2021/04/27 10:05:37;;;;;;;3.88;1.90;;;17.20;40.80;;;19.07;23.49;100098.91;4796971;29;20046;-84
2021/04/27 10:08:05;;;;;;;4.63;1.70;;;17.50;40.00;;;19.21;22.88;100103.53;4797058;30;20035;-83
2021/04/27 10:10:35;;;;;;;3.72;2.13;;;17.50;38.10;;;18.93;22.27;100090.66;4799529;29;20084;-86
2021/04/27 10:22:49;;;;;;;;;;;;;;;;;;;;;
2021/04/27 10:38:47;;;;;;;6.28;2.35;;;18.30;36.90;;;19.94;20.89;100052.41;5034869;24;20171;-84
2021/04/27 10:41:22;;;;;;;7.85;2.03;;;18.10;35.50;;;19.40;22.91;100061.16;4834260;29;20491;-84
2021/04/27 10:44:00;;;;;;;3.17;1.97;;;18.00;37.20;;;19.90;21.39;100046.03;4828636;29;20419;-87
2021/04/27 10:46:26;;;;;;;4.90;1.92;;;18.20;36.60;;;20.56;20.80;100045.03;4828507;29;20375;-87
2021/04/27 10:49:15;;;;;;;3.33;1.85;;;18.40;36.10;;;20.12;20.92;100037.88;4829149;29;20034;-86
2021/04/27 10:51:42;;;;;;;6.15;2.03;;;18.60;36.00;;;20.32;21.80;100027.34;4831287;29;20503;-87